Back to Top

Language: 

My Weather Underground Personal Weather Station Historical Data with Graphs...

Delerius Weather Station Historical Data
Daily Summary for March 14, 2017 Units:  Both    English   Metric
« Previous Day
Next Day »
Daily Weekly Monthly Yearly Custom
  High: Low: Average:
Temperature: 59.4 °F /  15.2 °C 48.2 °F /  9 °C 52.3 °F /  11.3 °C
Dew Point: 51.2 °F /  10.7 °C 41.5 °F /  5.3 °C 46.1 °F /  7.8 °C
Humidity: 88 % 55 % 80 %
Wind Speed: 22.0 mph /  35.4 km/h - 9.9 mph /  15.9 km/h
Wind Gust: 26.0 mph /  41.8 km/h - -
Wind:- - West
Pressure: 30.46 in /  1031.4 hPa 30.33 in /  1027 hPa -
Precipitation: 0.00 in /  0 mm    
Historical Graphs
 
 
Tabular Data for March 14, 2017
Time Temperature Dew Point Pressure Wind Wind Speed Wind Gust Humidity Rainfall Rate (Hourly) solar Conditions
00:05 48.5 °F /  9.2 °C 44.2 °F /  6.8 °C 30.38 in /  1028.7 hPa West 7.0 mph /  11.3 km/h 7.0 mph /  11.3 km/h 85 % 0.00 in /  0 mm 0 W/m2
00:15 48.6 °F /  9.2 °C 44.3 °F /  6.8 °C 30.38 in /  1028.7 hPa West 6.0 mph /  9.7 km/h 7.0 mph /  11.3 km/h 85 % 0.00 in /  0 mm 0 W/m2
00:20 48.6 °F /  9.2 °C 44.3 °F /  6.8 °C 30.38 in /  1028.7 hPa West 7.0 mph /  11.3 km/h 7.0 mph /  11.3 km/h 85 % 0.00 in /  0 mm 0 W/m2
00:30 48.8 °F /  9.3 °C 44.5 °F /  6.9 °C 30.38 in /  1028.7 hPa WNW 7.0 mph /  11.3 km/h 7.0 mph /  11.3 km/h 85 % 0.00 in /  0 mm 0 W/m2
00:35 48.8 °F /  9.3 °C 44.5 °F /  6.9 °C 30.38 in /  1028.7 hPa WNW 7.0 mph /  11.3 km/h 7.0 mph /  11.3 km/h 85 % 0.00 in /  0 mm 0 W/m2
00:40 48.9 °F /  9.4 °C 44.3 °F /  6.8 °C 30.38 in /  1028.7 hPa West 6.0 mph /  9.7 km/h 8.0 mph /  12.9 km/h 84 % 0.00 in /  0 mm 0 W/m2
00:50 48.8 °F /  9.3 °C 44.2 °F /  6.8 °C 30.37 in /  1028.3 hPa West 6.0 mph /  9.7 km/h 6.0 mph /  9.7 km/h 84 % 0.00 in /  0 mm 0 W/m2
00:55 48.8 °F /  9.3 °C 44.5 °F /  6.9 °C 30.37 in /  1028.3 hPa WNW 6.0 mph /  9.7 km/h 12.0 mph /  19.3 km/h 85 % 0.00 in /  0 mm 0 W/m2
01:00 48.9 °F /  9.4 °C 44.3 °F /  6.8 °C 30.37 in /  1028.3 hPa West 7.0 mph /  11.3 km/h 7.0 mph /  11.3 km/h 84 % 0.00 in /  0 mm 0 W/m2
01:10 48.8 °F /  9.3 °C 44.2 °F /  6.8 °C 30.37 in /  1028.3 hPa West 5.0 mph /  8 km/h 5.0 mph /  8 km/h 84 % 0.00 in /  0 mm 0 W/m2
01:15 48.6 °F /  9.2 °C 44.0 °F /  6.7 °C 30.37 in /  1028.3 hPa West 3.0 mph /  4.8 km/h 11.0 mph /  17.7 km/h 84 % 0.00 in /  0 mm 0 W/m2
01:20 48.5 °F /  9.2 °C 44.2 °F /  6.8 °C 30.37 in /  1028.3 hPa WNW 2.0 mph /  3.2 km/h 11.0 mph /  17.7 km/h 85 % 0.00 in /  0 mm 0 W/m2
01:25 48.3 °F /  9.1 °C 44.0 °F /  6.7 °C 30.36 in /  1028 hPa WNW 2.0 mph /  3.2 km/h 11.0 mph /  17.7 km/h 85 % 0.00 in /  0 mm 0 W/m2
01:35 48.2 °F /  9 °C 44.2 °F /  6.8 °C 30.36 in /  1028 hPa WNW 3.0 mph /  4.8 km/h 11.0 mph /  17.7 km/h 86 % 0.00 in /  0 mm 0 W/m2
01:40 48.2 °F /  9 °C 44.2 °F /  6.8 °C 30.36 in /  1028 hPa West 4.0 mph /  6.4 km/h 11.0 mph /  17.7 km/h 86 % 0.00 in /  0 mm 0 W/m2
01:45 48.4 °F /  9.1 °C 44.4 °F /  6.9 °C 30.35 in /  1027.7 hPa WNW 5.0 mph /  8 km/h 11.0 mph /  17.7 km/h 86 % 0.00 in /  0 mm 0 W/m2
01:50 48.5 °F /  9.2 °C 44.5 °F /  6.9 °C 30.35 in /  1027.7 hPa WNW 6.0 mph /  9.7 km/h 11.0 mph /  17.7 km/h 86 % 0.00 in /  0 mm 0 W/m2
01:55 48.7 °F /  9.3 °C 44.7 °F /  7.1 °C 30.35 in /  1027.7 hPa West 7.0 mph /  11.3 km/h 11.0 mph /  17.7 km/h 86 % 0.00 in /  0 mm 0 W/m2
02:00 48.8 °F /  9.3 °C 44.8 °F /  7.1 °C 30.34 in /  1027.3 hPa WNW 8.0 mph /  12.9 km/h 11.0 mph /  17.7 km/h 86 % 0.00 in /  0 mm 0 W/m2
02:10 48.7 °F /  9.3 °C 44.7 °F /  7.1 °C 30.34 in /  1027.3 hPa WNW 7.0 mph /  11.3 km/h 11.0 mph /  17.7 km/h 86 % 0.00 in /  0 mm 0 W/m2
02:15 48.7 °F /  9.3 °C 44.7 °F /  7.1 °C 30.34 in /  1027.3 hPa WSW 8.0 mph /  12.9 km/h 16.0 mph /  25.7 km/h 86 % 0.00 in /  0 mm 0 W/m2
02:20 48.9 °F /  9.4 °C 44.9 °F /  7.2 °C 30.34 in /  1027.3 hPa WNW 10.0 mph /  16.1 km/h 13.0 mph /  20.9 km/h 86 % 0.00 in /  0 mm 0 W/m2
02:25 49.1 °F /  9.5 °C 45.1 °F /  7.3 °C 30.34 in /  1027.3 hPa WSW 13.0 mph /  20.9 km/h 13.0 mph /  20.9 km/h 86 % 0.00 in /  0 mm 0 W/m2
02:30 49.2 °F /  9.6 °C 44.9 °F /  7.2 °C 30.34 in /  1027.3 hPa West 12.0 mph /  19.3 km/h 12.0 mph /  19.3 km/h 85 % 0.00 in /  0 mm 0 W/m2
02:40 49.0 °F /  9.4 °C 44.7 °F /  7.1 °C 30.34 in /  1027.3 hPa WNW 9.0 mph /  14.5 km/h 11.0 mph /  17.7 km/h 85 % 0.00 in /  0 mm 0 W/m2
02:45 48.9 °F /  9.4 °C 44.9 °F /  7.2 °C 30.34 in /  1027.3 hPa West 10.0 mph /  16.1 km/h 16.0 mph /  25.7 km/h 86 % 0.00 in /  0 mm 0 W/m2
02:55 48.9 °F /  9.4 °C 44.9 °F /  7.2 °C 30.34 in /  1027.3 hPa WNW 10.0 mph /  16.1 km/h 12.0 mph /  19.3 km/h 86 % 0.00 in /  0 mm 0 W/m2
03:00 48.9 °F /  9.4 °C 44.9 °F /  7.2 °C 30.34 in /  1027.3 hPa West 10.0 mph /  16.1 km/h 13.0 mph /  20.9 km/h 86 % 0.00 in /  0 mm 0 W/m2
03:05 48.9 °F /  9.4 °C 44.9 °F /  7.2 °C 30.34 in /  1027.3 hPa WNW 10.0 mph /  16.1 km/h 13.0 mph /  20.9 km/h 86 % 0.00 in /  0 mm 0 W/m2
03:15 48.9 °F /  9.4 °C 44.9 °F /  7.2 °C 30.34 in /  1027.3 hPa WNW 9.0 mph /  14.5 km/h 12.0 mph /  19.3 km/h 86 % 0.00 in /  0 mm 0 W/m2
03:20 48.9 °F /  9.4 °C 44.9 °F /  7.2 °C 30.34 in /  1027.3 hPa WNW 10.0 mph /  16.1 km/h 12.0 mph /  19.3 km/h 86 % 0.00 in /  0 mm 0 W/m2
03:25 48.8 °F /  9.3 °C 44.8 °F /  7.1 °C 30.34 in /  1027.3 hPa WNW 9.0 mph /  14.5 km/h 12.0 mph /  19.3 km/h 86 % 0.00 in /  0 mm 0 W/m2
03:30 48.8 °F /  9.3 °C 45.1 °F /  7.3 °C 30.33 in /  1027 hPa WNW 9.0 mph /  14.5 km/h 11.0 mph /  17.7 km/h 87 % 0.00 in /  0 mm 0 W/m2
03:35 48.7 °F /  9.3 °C 45.0 °F /  7.2 °C 30.33 in /  1027 hPa WNW 9.0 mph /  14.5 km/h 14.0 mph /  22.5 km/h 87 % 0.00 in /  0 mm 0 W/m2
03:40 48.7 °F /  9.3 °C 45.0 °F /  7.2 °C 30.33 in /  1027 hPa WNW 9.0 mph /  14.5 km/h 11.0 mph /  17.7 km/h 87 % 0.00 in /  0 mm 0 W/m2
03:50 48.6 °F /  9.2 °C 44.9 °F /  7.2 °C 30.33 in /  1027 hPa WNW 7.0 mph /  11.3 km/h 11.0 mph /  17.7 km/h 87 % 0.00 in /  0 mm 0 W/m2
03:55 48.6 °F /  9.2 °C 44.9 °F /  7.2 °C 30.33 in /  1027 hPa WNW 7.0 mph /  11.3 km/h 11.0 mph /  17.7 km/h 87 % 0.00 in /  0 mm 0 W/m2
04:00 48.6 °F /  9.2 °C 45.2 °F /  7.3 °C 30.33 in /  1027 hPa West 7.0 mph /  11.3 km/h 7.0 mph /  11.3 km/h 88 % 0.00 in /  0 mm 0 W/m2
04:10 48.9 °F /  9.4 °C 45.5 °F /  7.5 °C 30.33 in /  1027 hPa WNW 8.0 mph /  12.9 km/h 8.0 mph /  12.9 km/h 88 % 0.00 in /  0 mm 0 W/m2
04:15 49.2 °F /  9.6 °C 45.8 °F /  7.7 °C 30.33 in /  1027 hPa WNW 8.0 mph /  12.9 km/h 11.0 mph /  17.7 km/h 88 % 0.00 in /  0 mm 0 W/m2
04:20 49.6 °F /  9.8 °C 45.9 °F /  7.7 °C 30.33 in /  1027 hPa West 9.0 mph /  14.5 km/h 11.0 mph /  17.7 km/h 87 % 0.00 in /  0 mm 0 W/m2
04:25 50.1 °F /  10.1 °C 46.1 °F /  7.8 °C 30.33 in /  1027 hPa West 10.0 mph /  16.1 km/h 12.0 mph /  19.3 km/h 86 % 0.00 in /  0 mm 0 W/m2
04:30 50.4 °F /  10.2 °C 46.4 °F /  8 °C 30.33 in /  1027 hPa WNW 9.0 mph /  14.5 km/h 9.0 mph /  14.5 km/h 86 % 0.00 in /  0 mm 0 W/m2
04:35 50.5 °F /  10.3 °C 46.5 °F /  8.1 °C 30.33 in /  1027 hPa WSW 8.0 mph /  12.9 km/h 10.0 mph /  16.1 km/h 86 % 0.00 in /  0 mm 0 W/m2
04:40 50.8 °F /  10.4 °C 46.5 °F /  8.1 °C 30.33 in /  1027 hPa West 9.0 mph /  14.5 km/h 9.0 mph /  14.5 km/h 85 % 0.00 in /  0 mm 0 W/m2
04:45 51.1 °F /  10.6 °C 46.7 °F /  8.2 °C 30.33 in /  1027 hPa West 10.0 mph /  16.1 km/h 14.0 mph /  22.5 km/h 85 % 0.00 in /  0 mm 0 W/m2
04:55 51.3 °F /  10.7 °C 46.6 °F /  8.1 °C 30.33 in /  1027 hPa WNW 10.0 mph /  16.1 km/h 13.0 mph /  20.9 km/h 84 % 0.00 in /  0 mm 0 W/m2
05:00 51.3 °F /  10.7 °C 46.6 °F /  8.1 °C 30.33 in /  1027 hPa WNW 10.0 mph /  16.1 km/h 10.0 mph /  16.1 km/h 84 % 0.00 in /  0 mm 0 W/m2
05:05 51.2 °F /  10.7 °C 46.5 °F /  8.1 °C 30.33 in /  1027 hPa West 9.0 mph /  14.5 km/h 11.0 mph /  17.7 km/h 84 % 0.00 in /  0 mm 0 W/m2
05:10 51.2 °F /  10.7 °C 46.5 °F /  8.1 °C 30.33 in /  1027 hPa WNW 9.0 mph /  14.5 km/h 9.0 mph /  14.5 km/h 84 % 0.00 in /  0 mm 0 W/m2
05:20 51.3 °F /  10.7 °C 46.9 °F /  8.3 °C 30.34 in /  1027.3 hPa West 8.0 mph /  12.9 km/h 12.0 mph /  19.3 km/h 85 % 0.00 in /  0 mm 0 W/m2
05:25 51.5 °F /  10.8 °C 46.8 °F /  8.2 °C 30.34 in /  1027.3 hPa West 9.0 mph /  14.5 km/h 12.0 mph /  19.3 km/h 84 % 0.00 in /  0 mm 0 W/m2
05:30 51.6 °F /  10.9 °C 46.9 °F /  8.3 °C 30.33 in /  1027 hPa WSW 9.0 mph /  14.5 km/h 12.0 mph /  19.3 km/h 84 % 0.00 in /  0 mm 0 W/m2
05:40 51.7 °F /  10.9 °C 47.0 °F /  8.3 °C 30.34 in /  1027.3 hPa West 10.0 mph /  16.1 km/h 10.0 mph /  16.1 km/h 84 % 0.00 in /  0 mm 0 W/m2
05:45 51.6 °F /  10.9 °C 46.9 °F /  8.3 °C 30.34 in /  1027.3 hPa WSW 9.0 mph /  14.5 km/h 11.0 mph /  17.7 km/h 84 % 0.00 in /  0 mm 0 W/m2
05:50 51.5 °F /  10.8 °C 46.8 °F /  8.2 °C 30.34 in /  1027.3 hPa West 9.0 mph /  14.5 km/h 9.0 mph /  14.5 km/h 84 % 0.00 in /  0 mm 0 W/m2
05:55 51.3 °F /  10.7 °C 46.6 °F /  8.1 °C 30.34 in /  1027.3 hPa West 9.0 mph /  14.5 km/h 11.0 mph /  17.7 km/h 84 % 0.00 in /  0 mm 0 W/m2
06:05 51.2 °F /  10.7 °C 46.8 °F /  8.2 °C 30.34 in /  1027.3 hPa WSW 9.0 mph /  14.5 km/h 15.0 mph /  24.1 km/h 85 % 0.00 in /  0 mm 0 W/m2
06:10 51.3 °F /  10.7 °C 46.9 °F /  8.3 °C 30.34 in /  1027.3 hPa West 9.0 mph /  14.5 km/h 11.0 mph /  17.7 km/h 85 % 0.00 in /  0 mm 0 W/m2
06:15 51.3 °F /  10.7 °C 46.9 °F /  8.3 °C 30.34 in /  1027.3 hPa WSW 9.0 mph /  14.5 km/h 11.0 mph /  17.7 km/h 85 % 0.00 in /  0 mm 0 W/m2
06:20 51.3 °F /  10.7 °C 46.9 °F /  8.3 °C 30.34 in /  1027.3 hPa SSW 10.0 mph /  16.1 km/h 10.0 mph /  16.1 km/h 85 % 0.00 in /  0 mm 0 W/m2
06:25 51.3 °F /  10.7 °C 46.9 °F /  8.3 °C 30.34 in /  1027.3 hPa West 9.0 mph /  14.5 km/h 16.0 mph /  25.7 km/h 85 % 0.00 in /  0 mm 0 W/m2
06:35 51.5 °F /  10.8 °C 46.8 °F /  8.2 °C 30.34 in /  1027.3 hPa West 10.0 mph /  16.1 km/h 12.0 mph /  19.3 km/h 84 % 0.00 in /  0 mm 5 W/m2
06:40 51.5 °F /  10.8 °C 46.8 °F /  8.2 °C 30.34 in /  1027.3 hPa WSW 11.0 mph /  17.7 km/h 11.0 mph /  17.7 km/h 84 % 0.00 in /  0 mm 7 W/m2
06:45 51.6 °F /  10.9 °C 46.9 °F /  8.3 °C 30.34 in /  1027.3 hPa West 11.0 mph /  17.7 km/h 12.0 mph /  19.3 km/h 84 % 0.00 in /  0 mm 9 W/m2
06:50 51.6 °F /  10.9 °C 46.9 °F /  8.3 °C 30.34 in /  1027.3 hPa WSW 10.0 mph /  16.1 km/h 10.0 mph /  16.1 km/h 84 % 0.00 in /  0 mm 14 W/m2
06:55 51.6 °F /  10.9 °C 46.9 °F /  8.3 °C 30.34 in /  1027.3 hPa SW 8.0 mph /  12.9 km/h 11.0 mph /  17.7 km/h 84 % 0.00 in /  0 mm 14 W/m2
07:00 51.6 °F /  10.9 °C 46.9 °F /  8.3 °C 30.34 in /  1027.3 hPa West 10.0 mph /  16.1 km/h 10.0 mph /  16.1 km/h 84 % 0.00 in /  0 mm 21 W/m2
07:10 51.4 °F /  10.8 °C 46.7 °F /  8.2 °C 30.34 in /  1027.3 hPa WSW 10.0 mph /  16.1 km/h 13.0 mph /  20.9 km/h 84 % 0.00 in /  0 mm 32 W/m2
07:20 51.5 °F /  10.8 °C 46.8 °F /  8.2 °C 30.35 in /  1027.7 hPa WSW 9.0 mph /  14.5 km/h 9.0 mph /  14.5 km/h 84 % 0.00 in /  0 mm 51 W/m2
07:25 51.6 °F /  10.9 °C 46.9 °F /  8.3 °C 30.35 in /  1027.7 hPa WSW 9.0 mph /  14.5 km/h 13.0 mph /  20.9 km/h 84 % 0.00 in /  0 mm 56 W/m2
07:30 51.6 °F /  10.9 °C 47.2 °F /  8.4 °C 30.35 in /  1027.7 hPa WSW 8.0 mph /  12.9 km/h 15.0 mph /  24.1 km/h 85 % 0.00 in /  0 mm 63 W/m2
07:35 51.7 °F /  10.9 °C 47.3 °F /  8.5 °C 30.35 in /  1027.7 hPa WSW 9.0 mph /  14.5 km/h 15.0 mph /  24.1 km/h 85 % 0.00 in /  0 mm 67 W/m2
07:40 51.7 °F /  10.9 °C 47.3 °F /  8.5 °C 30.35 in /  1027.7 hPa WSW 9.0 mph /  14.5 km/h 9.0 mph /  14.5 km/h 85 % 0.00 in /  0 mm 90 W/m2
07:45 51.8 °F /  11 °C 47.4 °F /  8.6 °C 30.35 in /  1027.7 hPa NW 7.0 mph /  11.3 km/h 11.0 mph /  17.7 km/h 85 % 0.00 in /  0 mm 74 W/m2
07:50 51.9 °F /  11.1 °C 47.5 °F /  8.6 °C 30.34 in /  1027.3 hPa West 6.0 mph /  9.7 km/h 11.0 mph /  17.7 km/h 85 % 0.00 in /  0 mm 74 W/m2
07:55 52.0 °F /  11.1 °C 47.6 °F /  8.7 °C 30.35 in /  1027.7 hPa West 7.0 mph /  11.3 km/h 11.0 mph /  17.7 km/h 85 % 0.00 in /  0 mm 98 W/m2
08:00 52.1 °F /  11.2 °C 47.7 °F /  8.7 °C 30.34 in /  1027.3 hPa WSW 7.0 mph /  11.3 km/h 7.0 mph /  11.3 km/h 85 % 0.00 in /  0 mm 116 W/m2
08:05 52.3 °F /  11.3 °C 47.9 °F /  8.8 °C 30.34 in /  1027.3 hPa WSW 7.0 mph /  11.3 km/h 11.0 mph /  17.7 km/h 85 % 0.00 in /  0 mm 121 W/m2
08:15 52.5 °F /  11.4 °C 47.8 °F /  8.8 °C 30.34 in /  1027.3 hPa West 7.0 mph /  11.3 km/h 11.0 mph /  17.7 km/h 84 % 0.00 in /  0 mm 149 W/m2
08:20 52.7 °F /  11.5 °C 48.0 °F /  8.9 °C 30.34 in /  1027.3 hPa WSW 7.0 mph /  11.3 km/h 7.0 mph /  11.3 km/h 84 % 0.00 in /  0 mm 130 W/m2
08:25 52.9 °F /  11.6 °C 48.2 °F /  9 °C 30.34 in /  1027.3 hPa West 7.0 mph /  11.3 km/h 11.0 mph /  17.7 km/h 84 % 0.00 in /  0 mm 144 W/m2
08:30 53.1 °F /  11.7 °C 48.1 °F /  8.9 °C 30.35 in /  1027.7 hPa WNW 7.0 mph /  11.3 km/h 7.0 mph /  11.3 km/h 83 % 0.00 in /  0 mm 135 W/m2
08:40 53.2 °F /  11.8 °C 47.8 °F /  8.8 °C 30.35 in /  1027.7 hPa West 8.0 mph /  12.9 km/h 8.0 mph /  12.9 km/h 82 % 0.00 in /  0 mm 116 W/m2
08:45 53.3 °F /  11.8 °C 47.9 °F /  8.8 °C 30.35 in /  1027.7 hPa WSW 9.0 mph /  14.5 km/h 9.0 mph /  14.5 km/h 82 % 0.00 in /  0 mm 127 W/m2
08:55 53.6 °F /  12 °C 47.9 °F /  8.8 °C 30.35 in /  1027.7 hPa SW 8.0 mph /  12.9 km/h 9.0 mph /  14.5 km/h 81 % 0.00 in /  0 mm 162 W/m2
09:00 53.7 °F /  12.1 °C 48.0 °F /  8.9 °C 30.34 in /  1027.3 hPa West 10.0 mph /  16.1 km/h 15.0 mph /  24.1 km/h 81 % 0.00 in /  0 mm 176 W/m2
09:05 53.8 °F /  12.1 °C 48.1 °F /  8.9 °C 30.34 in /  1027.3 hPa WSW 12.0 mph /  19.3 km/h 15.0 mph /  24.1 km/h 81 % 0.00 in /  0 mm 174 W/m2
09:10 53.8 °F /  12.1 °C 48.1 °F /  8.9 °C 30.34 in /  1027.3 hPa West 13.0 mph /  20.9 km/h 13.0 mph /  20.9 km/h 81 % 0.00 in /  0 mm 181 W/m2
09:20 53.9 °F /  12.2 °C 48.2 °F /  9 °C 30.34 in /  1027.3 hPa West 12.0 mph /  19.3 km/h 22.0 mph /  35.4 km/h 81 % 0.00 in /  0 mm 192 W/m2
09:25 53.9 °F /  12.2 °C 48.2 °F /  9 °C 30.34 in /  1027.3 hPa SW 14.0 mph /  22.5 km/h 22.0 mph /  35.4 km/h 81 % 0.00 in /  0 mm 199 W/m2
09:30 53.9 °F /  12.2 °C 48.5 °F /  9.2 °C 30.34 in /  1027.3 hPa West 13.0 mph /  20.9 km/h 13.0 mph /  20.9 km/h 82 % 0.00 in /  0 mm 199 W/m2
09:35 53.9 °F /  12.2 °C 48.5 °F /  9.2 °C 30.34 in /  1027.3 hPa WSW 11.0 mph /  17.7 km/h 16.0 mph /  25.7 km/h 82 % 0.00 in /  0 mm 199 W/m2
09:40 54.0 °F /  12.2 °C 48.6 °F /  9.2 °C 30.34 in /  1027.3 hPa WSW 11.0 mph /  17.7 km/h 11.0 mph /  17.7 km/h 82 % 0.00 in /  0 mm 206 W/m2
09:45 53.9 °F /  12.2 °C 48.5 °F /  9.2 °C 30.35 in /  1027.7 hPa WSW 13.0 mph /  20.9 km/h 13.0 mph /  20.9 km/h 82 % 0.00 in /  0 mm 214 W/m2
09:55 53.8 °F /  12.1 °C 48.8 °F /  9.3 °C 30.34 in /  1027.3 hPa West 12.0 mph /  19.3 km/h 13.0 mph /  20.9 km/h 83 % 0.00 in /  0 mm 225 W/m2
10:00 53.9 °F /  12.2 °C 49.2 °F /  9.6 °C 30.35 in /  1027.7 hPa WSW 12.0 mph /  19.3 km/h 12.0 mph /  19.3 km/h 84 % 0.00 in /  0 mm 225 W/m2
10:10 54.1 °F /  12.3 °C 49.4 °F /  9.7 °C 30.35 in /  1027.7 hPa WSW 12.0 mph /  19.3 km/h 13.0 mph /  20.9 km/h 84 % 0.00 in /  0 mm 257 W/m2
10:15 54.3 °F /  12.4 °C 49.6 °F /  9.8 °C 30.35 in /  1027.7 hPa WSW 11.0 mph /  17.7 km/h 16.0 mph /  25.7 km/h 84 % 0.00 in /  0 mm 267 W/m2
10:20 54.4 °F /  12.4 °C 49.3 °F /  9.6 °C 30.35 in /  1027.7 hPa WSW 11.0 mph /  17.7 km/h 11.0 mph /  17.7 km/h 83 % 0.00 in /  0 mm 274 W/m2
10:30 54.8 °F /  12.7 °C 49.7 °F /  9.8 °C 30.35 in /  1027.7 hPa WSW 13.0 mph /  20.9 km/h 16.0 mph /  25.7 km/h 83 % 0.00 in /  0 mm 336 W/m2
10:35 55.1 °F /  12.8 °C 49.7 °F /  9.8 °C 30.34 in /  1027.3 hPa WSW 13.0 mph /  20.9 km/h 16.0 mph /  25.7 km/h 82 % 0.00 in /  0 mm 350 W/m2
10:40 55.2 °F /  12.9 °C 49.8 °F /  9.9 °C 30.34 in /  1027.3 hPa WSW 14.0 mph /  22.5 km/h 14.0 mph /  22.5 km/h 82 % 0.00 in /  0 mm 396 W/m2
10:45 55.2 °F /  12.9 °C 49.8 °F /  9.9 °C 30.35 in /  1027.7 hPa WSW 14.0 mph /  22.5 km/h 14.0 mph /  22.5 km/h 82 % 0.00 in /  0 mm 343 W/m2
10:50 55.3 °F /  12.9 °C 49.9 °F /  9.9 °C 30.34 in /  1027.3 hPa WSW 14.0 mph /  22.5 km/h 19.0 mph /  30.6 km/h 82 % 0.00 in /  0 mm 378 W/m2
10:55 55.4 °F /  13 °C 50.0 °F /  10 °C 30.35 in /  1027.7 hPa WSW 15.0 mph /  24.1 km/h 19.0 mph /  30.6 km/h 82 % 0.00 in /  0 mm 438 W/m2
11:05 55.6 °F /  13.1 °C 50.2 °F /  10.1 °C 30.35 in /  1027.7 hPa West 15.0 mph /  24.1 km/h 19.0 mph /  30.6 km/h 82 % 0.00 in /  0 mm 265 W/m2
11:10 55.5 °F /  13.1 °C 50.1 °F /  10.1 °C 30.35 in /  1027.7 hPa WSW 15.0 mph /  24.1 km/h 15.0 mph /  24.1 km/h 82 % 0.00 in /  0 mm 353 W/m2
11:15 55.5 °F /  13.1 °C 50.1 °F /  10.1 °C 30.35 in /  1027.7 hPa West 15.0 mph /  24.1 km/h 15.0 mph /  24.1 km/h 82 % 0.00 in /  0 mm 304 W/m2
11:20 55.6 °F /  13.1 °C 50.2 °F /  10.1 °C 30.36 in /  1028 hPa WSW 15.0 mph /  24.1 km/h 15.0 mph /  24.1 km/h 82 % 0.00 in /  0 mm 338 W/m2
11:25 55.6 °F /  13.1 °C 50.2 °F /  10.1 °C 30.36 in /  1028 hPa NW 15.0 mph /  24.1 km/h 15.0 mph /  24.1 km/h 82 % 0.00 in /  0 mm 343 W/m2
11:35 55.5 °F /  13.1 °C 50.1 °F /  10.1 °C 30.36 in /  1028 hPa WSW 16.0 mph /  25.7 km/h 18.0 mph /  29 km/h 82 % 0.00 in /  0 mm 272 W/m2
11:40 55.5 °F /  13.1 °C 50.1 °F /  10.1 °C 30.36 in /  1028 hPa West 16.0 mph /  25.7 km/h 16.0 mph /  25.7 km/h 82 % 0.00 in /  0 mm 265 W/m2
11:45 55.5 °F /  13.1 °C 50.1 °F /  10.1 °C 30.36 in /  1028 hPa WSW 16.0 mph /  25.7 km/h 20.0 mph /  32.2 km/h 82 % 0.00 in /  0 mm 244 W/m2
11:50 55.4 °F /  13 °C 50.0 °F /  10 °C 30.37 in /  1028.3 hPa West 16.0 mph /  25.7 km/h 16.0 mph /  25.7 km/h 82 % 0.00 in /  0 mm 237 W/m2
11:55 55.3 °F /  12.9 °C 50.2 °F /  10.1 °C 30.37 in /  1028.3 hPa West 16.0 mph /  25.7 km/h 16.0 mph /  25.7 km/h 83 % 0.00 in /  0 mm 248 W/m2
12:05 55.2 °F /  12.9 °C 50.4 °F /  10.2 °C 30.37 in /  1028.3 hPa West 17.0 mph /  27.4 km/h 21.0 mph /  33.8 km/h 84 % 0.00 in /  0 mm 202 W/m2
12:10 55.2 °F /  12.9 °C 50.4 °F /  10.2 °C 30.37 in /  1028.3 hPa West 16.0 mph /  25.7 km/h 16.0 mph /  25.7 km/h 84 % 0.00 in /  0 mm 185 W/m2
12:15 55.1 °F /  12.8 °C 50.4 °F /  10.2 °C 30.38 in /  1028.7 hPa West 15.0 mph /  24.1 km/h 16.0 mph /  25.7 km/h 84 % 0.00 in /  0 mm 116 W/m2
12:25 54.9 °F /  12.7 °C 50.8 °F /  10.4 °C 30.37 in /  1028.3 hPa WSW 12.0 mph /  19.3 km/h 14.0 mph /  22.5 km/h 86 % 0.00 in /  0 mm 197 W/m2
12:30 54.9 °F /  12.7 °C 50.8 °F /  10.4 °C 30.37 in /  1028.3 hPa West 12.0 mph /  19.3 km/h 12.0 mph /  19.3 km/h 86 % 0.00 in /  0 mm 193 W/m2
12:35 54.9 °F /  12.7 °C 50.8 °F /  10.4 °C 30.38 in /  1028.7 hPa West 12.0 mph /  19.3 km/h 20.0 mph /  32.2 km/h 86 % 0.00 in /  0 mm 95 W/m2
12:45 54.6 °F /  12.6 °C 50.8 °F /  10.4 °C 30.37 in /  1028.3 hPa West 11.0 mph /  17.7 km/h 16.0 mph /  25.7 km/h 87 % 0.00 in /  0 mm 118 W/m2
12:50 54.5 °F /  12.5 °C 50.7 °F /  10.4 °C 30.37 in /  1028.3 hPa West 11.0 mph /  17.7 km/h 11.0 mph /  17.7 km/h 87 % 0.00 in /  0 mm 137 W/m2
12:55 54.6 °F /  12.6 °C 50.8 °F /  10.4 °C 30.37 in /  1028.3 hPa WSW 11.0 mph /  17.7 km/h 11.0 mph /  17.7 km/h 87 % 0.00 in /  0 mm 197 W/m2
13:00 54.8 °F /  12.7 °C 50.7 °F /  10.4 °C 30.37 in /  1028.3 hPa West 11.0 mph /  17.7 km/h 13.0 mph /  20.9 km/h 86 % 0.00 in /  0 mm 214 W/m2
13:05 55.1 °F /  12.8 °C 50.7 °F /  10.4 °C 30.37 in /  1028.3 hPa West 13.0 mph /  20.9 km/h 13.0 mph /  20.9 km/h 85 % 0.00 in /  0 mm 327 W/m2
13:15 56.4 °F /  13.6 °C 51.0 °F /  10.6 °C 30.37 in /  1028.3 hPa West 13.0 mph /  20.9 km/h 16.0 mph /  25.7 km/h 82 % 0.00 in /  0 mm 605 W/m2
13:20 57.3 °F /  14.1 °C 51.2 °F /  10.7 °C 30.37 in /  1028.3 hPa West 15.0 mph /  24.1 km/h 15.0 mph /  24.1 km/h 80 % 0.00 in /  0 mm 580 W/m2
13:25 57.9 °F /  14.4 °C 50.0 °F /  10 °C 30.36 in /  1028 hPa West 17.0 mph /  27.4 km/h 19.0 mph /  30.6 km/h 75 % 0.00 in /  0 mm 492 W/m2
13:30 58.0 °F /  14.4 °C 49.4 °F /  9.7 °C 30.36 in /  1028 hPa NW 19.0 mph /  30.6 km/h 19.0 mph /  30.6 km/h 73 % 0.00 in /  0 mm 508 W/m2
13:40 58.3 °F /  14.6 °C 48.9 °F /  9.4 °C 30.36 in /  1028 hPa WSW 22.0 mph /  35.4 km/h 24.0 mph /  38.6 km/h 71 % 0.00 in /  0 mm 510 W/m2
13:45 58.7 °F /  14.8 °C 49.3 °F /  9.6 °C 30.36 in /  1028 hPa West 19.0 mph /  30.6 km/h 24.0 mph /  38.6 km/h 71 % 0.00 in /  0 mm 577 W/m2
13:50 59.2 °F /  15.1 °C 48.6 °F /  9.2 °C 30.36 in /  1028 hPa WNW 17.0 mph /  27.4 km/h 17.0 mph /  27.4 km/h 68 % 0.00 in /  0 mm 497 W/m2
13:55 59.2 °F /  15.1 °C 47.8 °F /  8.8 °C 30.37 in /  1028.3 hPa West 18.0 mph /  29 km/h 19.0 mph /  30.6 km/h 66 % 0.00 in /  0 mm 494 W/m2
14:00 59.0 °F /  15 °C 47.2 °F /  8.4 °C 30.37 in /  1028.3 hPa West 20.0 mph /  32.2 km/h 20.0 mph /  32.2 km/h 65 % 0.00 in /  0 mm 512 W/m2
14:05 59.0 °F /  15 °C 46.4 °F /  8 °C 30.37 in /  1028.3 hPa WNW 21.0 mph /  33.8 km/h 21.0 mph /  33.8 km/h 63 % 0.00 in /  0 mm 522 W/m2
14:10 59.1 °F /  15.1 °C 46.1 °F /  7.8 °C 30.37 in /  1028.3 hPa West 20.0 mph /  32.2 km/h 26.0 mph /  41.8 km/h 62 % 0.00 in /  0 mm 490 W/m2
14:15 59.1 °F /  15.1 °C 46.1 °F /  7.8 °C 30.37 in /  1028.3 hPa West 19.0 mph /  30.6 km/h 26.0 mph /  41.8 km/h 62 % 0.00 in /  0 mm 483 W/m2
14:25 59.2 °F /  15.1 °C 46.2 °F /  7.9 °C 30.36 in /  1028 hPa WNW 19.0 mph /  30.6 km/h 19.0 mph /  30.6 km/h 62 % 0.00 in /  0 mm 482 W/m2
14:30 59.3 °F /  15.2 °C 46.3 °F /  7.9 °C 30.36 in /  1028 hPa NW 19.0 mph /  30.6 km/h 19.0 mph /  30.6 km/h 62 % 0.00 in /  0 mm 487 W/m2
14:35 59.4 °F /  15.2 °C 46.4 °F /  8 °C 30.36 in /  1028 hPa WNW 18.0 mph /  29 km/h 19.0 mph /  30.6 km/h 62 % 0.00 in /  0 mm 468 W/m2
14:40 59.4 °F /  15.2 °C 46.8 °F /  8.2 °C 30.37 in /  1028.3 hPa West 17.0 mph /  27.4 km/h 17.0 mph /  27.4 km/h 63 % 0.00 in /  0 mm 461 W/m2
14:45 59.3 °F /  15.2 °C 46.7 °F /  8.2 °C 30.37 in /  1028.3 hPa West 17.0 mph /  27.4 km/h 17.0 mph /  27.4 km/h 63 % 0.00 in /  0 mm 413 W/m2
14:55 58.9 °F /  14.9 °C 46.3 °F /  7.9 °C 30.37 in /  1028.3 hPa WNW 17.0 mph /  27.4 km/h 17.0 mph /  27.4 km/h 63 % 0.00 in /  0 mm 436 W/m2
15:00 58.8 °F /  14.9 °C 46.2 °F /  7.9 °C 30.37 in /  1028.3 hPa West 18.0 mph /  29 km/h 22.0 mph /  35.4 km/h 63 % 0.00 in /  0 mm 353 W/m2
15:05 58.5 °F /  14.7 °C 45.9 °F /  7.7 °C 30.37 in /  1028.3 hPa West 19.0 mph /  30.6 km/h 22.0 mph /  35.4 km/h 63 % 0.00 in /  0 mm 202 W/m2
15:10 57.9 °F /  14.4 °C 45.8 °F /  7.7 °C 30.37 in /  1028.3 hPa WNW 19.0 mph /  30.6 km/h 19.0 mph /  30.6 km/h 64 % 0.00 in /  0 mm 113 W/m2
15:15 57.6 °F /  14.2 °C 45.5 °F /  7.5 °C 30.38 in /  1028.7 hPa West 17.0 mph /  27.4 km/h 19.0 mph /  30.6 km/h 64 % 0.00 in /  0 mm 213 W/m2
15:20 57.7 °F /  14.3 °C 46.0 °F /  7.8 °C 30.38 in /  1028.7 hPa West 15.0 mph /  24.1 km/h 15.0 mph /  24.1 km/h 65 % 0.00 in /  0 mm 100 W/m2
15:30 57.5 °F /  14.2 °C 45.0 °F /  7.2 °C 30.38 in /  1028.7 hPa WNW 16.0 mph /  25.7 km/h 25.0 mph /  40.2 km/h 63 % 0.00 in /  0 mm 313 W/m2
15:40 57.9 °F /  14.4 °C 44.1 °F /  6.7 °C 30.38 in /  1028.7 hPa West 17.0 mph /  27.4 km/h 19.0 mph /  30.6 km/h 60 % 0.00 in /  0 mm 320 W/m2
15:45 58.0 °F /  14.4 °C 42.8 °F /  6 °C 30.38 in /  1028.7 hPa WNW 17.0 mph /  27.4 km/h 19.0 mph /  30.6 km/h 57 % 0.00 in /  0 mm 294 W/m2
15:50 58.0 °F /  14.4 °C 42.4 °F /  5.8 °C 30.38 in /  1028.7 hPa West 16.0 mph /  25.7 km/h 16.0 mph /  25.7 km/h 56 % 0.00 in /  0 mm 262 W/m2
16:05 57.6 °F /  14.2 °C 41.5 °F /  5.3 °C 30.38 in /  1028.7 hPa West 17.0 mph /  27.4 km/h 23.0 mph /  37 km/h 55 % 0.00 in /  0 mm 248 W/m2
19:08 51.6 °F /  10.9 °C 41.9 °F /  5.5 °C 30.42 in /  1030 hPa West 6.0 mph /  9.7 km/h 11.0 mph /  17.7 km/h 69 % 0.00 in /  0 mm 0 W/m2
19:13 51.6 °F /  10.9 °C 42.1 °F /  5.6 °C 30.42 in /  1030 hPa West 5.0 mph /  8 km/h 11.0 mph /  17.7 km/h 70 % 0.00 in /  0 mm 0 W/m2
19:18 51.4 °F /  10.8 °C 42.0 °F /  5.6 °C 30.43 in /  1030.4 hPa West 4.0 mph /  6.4 km/h 9.0 mph /  14.5 km/h 70 % 0.00 in /  0 mm 0 W/m2
19:23 51.3 °F /  10.7 °C 42.2 °F /  5.7 °C 30.43 in /  1030.4 hPa West 4.0 mph /  6.4 km/h 8.0 mph /  12.9 km/h 71 % 0.00 in /  0 mm 0 W/m2
19:28 51.3 °F /  10.7 °C 42.2 °F /  5.7 °C 30.43 in /  1030.4 hPa West 3.0 mph /  4.8 km/h 7.0 mph /  11.3 km/h 71 % 0.00 in /  0 mm 0 W/m2
19:33 51.1 °F /  10.6 °C 42.0 °F /  5.6 °C 30.43 in /  1030.4 hPa West 3.0 mph /  4.8 km/h 7.0 mph /  11.3 km/h 71 % 0.00 in /  0 mm 0 W/m2
19:38 50.9 °F /  10.5 °C 42.2 °F /  5.7 °C 30.43 in /  1030.4 hPa West 3.0 mph /  4.8 km/h 7.0 mph /  11.3 km/h 72 % 0.00 in /  0 mm 0 W/m2
19:43 50.7 °F /  10.4 °C 42.0 °F /  5.6 °C 30.43 in /  1030.4 hPa West 3.0 mph /  4.8 km/h 7.0 mph /  11.3 km/h 72 % 0.00 in /  0 mm 0 W/m2
19:48 50.7 °F /  10.4 °C 42.4 °F /  5.8 °C 30.43 in /  1030.4 hPa West 5.0 mph /  8 km/h 12.0 mph /  19.3 km/h 73 % 0.00 in /  0 mm 0 W/m2
19:53 50.7 °F /  10.4 °C 42.4 °F /  5.8 °C 30.43 in /  1030.4 hPa West 6.0 mph /  9.7 km/h 12.0 mph /  19.3 km/h 73 % 0.00 in /  0 mm 0 W/m2
19:58 50.5 °F /  10.3 °C 42.6 °F /  5.9 °C 30.43 in /  1030.4 hPa West 7.0 mph /  11.3 km/h 13.0 mph /  20.9 km/h 74 % 0.00 in /  0 mm 0 W/m2
20:13 50.5 °F /  10.3 °C 42.6 °F /  5.9 °C 30.43 in /  1030.4 hPa West 5.0 mph /  8 km/h 5.0 mph /  8 km/h 74 % 0.00 in /  0 mm 0 W/m2
20:18 50.5 °F /  10.3 °C 42.9 °F /  6.1 °C 30.43 in /  1030.4 hPa West 7.0 mph /  11.3 km/h 11.0 mph /  17.7 km/h 75 % 0.00 in /  0 mm 0 W/m2
20:23 50.5 °F /  10.3 °C 42.9 °F /  6.1 °C 30.43 in /  1030.4 hPa West 7.0 mph /  11.3 km/h 12.0 mph /  19.3 km/h 75 % 0.00 in /  0 mm 0 W/m2
20:28 50.5 °F /  10.3 °C 42.9 °F /  6.1 °C 30.44 in /  1030.7 hPa West 8.0 mph /  12.9 km/h 12.0 mph /  19.3 km/h 75 % 0.00 in /  0 mm 0 W/m2
20:33 50.5 °F /  10.3 °C 43.3 °F /  6.3 °C 30.44 in /  1030.7 hPa West 7.0 mph /  11.3 km/h 11.0 mph /  17.7 km/h 76 % 0.00 in /  0 mm 0 W/m2
20:38 50.5 °F /  10.3 °C 43.3 °F /  6.3 °C 30.44 in /  1030.7 hPa West 8.0 mph /  12.9 km/h 16.0 mph /  25.7 km/h 76 % 0.00 in /  0 mm 0 W/m2
20:43 50.5 °F /  10.3 °C 43.6 °F /  6.4 °C 30.44 in /  1030.7 hPa West 8.0 mph /  12.9 km/h 16.0 mph /  25.7 km/h 77 % 0.00 in /  0 mm 0 W/m2
20:48 50.5 °F /  10.3 °C 43.6 °F /  6.4 °C 30.44 in /  1030.7 hPa West 7.0 mph /  11.3 km/h 13.0 mph /  20.9 km/h 77 % 0.00 in /  0 mm 0 W/m2
20:53 50.5 °F /  10.3 °C 43.6 °F /  6.4 °C 30.44 in /  1030.7 hPa West 6.0 mph /  9.7 km/h 10.0 mph /  16.1 km/h 77 % 0.00 in /  0 mm 0 W/m2
20:58 50.4 °F /  10.2 °C 43.8 °F /  6.6 °C 30.44 in /  1030.7 hPa West 6.0 mph /  9.7 km/h 10.0 mph /  16.1 km/h 78 % 0.00 in /  0 mm 0 W/m2
21:03 50.4 °F /  10.2 °C 44.1 °F /  6.7 °C 30.44 in /  1030.7 hPa West 6.0 mph /  9.7 km/h 10.0 mph /  16.1 km/h 79 % 0.00 in /  0 mm 0 W/m2
21:08 50.4 °F /  10.2 °C 44.1 °F /  6.7 °C 30.44 in /  1030.7 hPa West 6.0 mph /  9.7 km/h 10.0 mph /  16.1 km/h 79 % 0.00 in /  0 mm 0 W/m2
21:13 50.4 °F /  10.2 °C 44.1 °F /  6.7 °C 30.44 in /  1030.7 hPa West 6.0 mph /  9.7 km/h 12.0 mph /  19.3 km/h 79 % 0.00 in /  0 mm 0 W/m2
21:18 50.4 °F /  10.2 °C 44.4 °F /  6.9 °C 30.44 in /  1030.7 hPa West 7.0 mph /  11.3 km/h 12.0 mph /  19.3 km/h 80 % 0.00 in /  0 mm 0 W/m2
21:23 50.4 °F /  10.2 °C 44.4 °F /  6.9 °C 30.45 in /  1031 hPa West 7.0 mph /  11.3 km/h 13.0 mph /  20.9 km/h 80 % 0.00 in /  0 mm 0 W/m2
21:28 50.5 °F /  10.3 °C 44.6 °F /  7 °C 30.45 in /  1031 hPa West 8.0 mph /  12.9 km/h 14.0 mph /  22.5 km/h 80 % 0.00 in /  0 mm 0 W/m2
21:33 50.7 °F /  10.4 °C 44.4 °F /  6.9 °C 30.45 in /  1031 hPa West 8.0 mph /  12.9 km/h 14.0 mph /  22.5 km/h 79 % 0.00 in /  0 mm 0 W/m2
21:38 50.7 °F /  10.4 °C 44.4 °F /  6.9 °C 30.45 in /  1031 hPa WNW 7.0 mph /  11.3 km/h 13.0 mph /  20.9 km/h 79 % 0.00 in /  0 mm 0 W/m2
21:43 50.7 °F /  10.4 °C 44.4 °F /  6.9 °C 30.45 in /  1031 hPa WNW 7.0 mph /  11.3 km/h 12.0 mph /  19.3 km/h 79 % 0.00 in /  0 mm 0 W/m2
21:48 50.7 °F /  10.4 °C 44.4 °F /  6.9 °C 30.45 in /  1031 hPa WNW 6.0 mph /  9.7 km/h 11.0 mph /  17.7 km/h 79 % 0.00 in /  0 mm 0 W/m2
21:53 50.7 °F /  10.4 °C 44.4 °F /  6.9 °C 30.45 in /  1031 hPa WNW 3.0 mph /  4.8 km/h 8.0 mph /  12.9 km/h 79 % 0.00 in /  0 mm 0 W/m2
21:59 50.7 °F /  10.4 °C 44.4 °F /  6.9 °C 30.45 in /  1031 hPa West 7.0 mph /  11.3 km/h 8.0 mph /  12.9 km/h 79 % 0.00 in /  0 mm 0 W/m2
22:04 50.7 °F /  10.4 °C 44.8 °F /  7.1 °C 30.45 in /  1031 hPa West 7.0 mph /  11.3 km/h 13.0 mph /  20.9 km/h 80 % 0.00 in /  0 mm 0 W/m2
22:09 50.7 °F /  10.4 °C 44.8 °F /  7.1 °C 30.45 in /  1031 hPa West 7.0 mph /  11.3 km/h 13.0 mph /  20.9 km/h 80 % 0.00 in /  0 mm 0 W/m2
22:18 50.7 °F /  10.4 °C 44.8 °F /  7.1 °C 30.45 in /  1031 hPa West 8.0 mph /  12.9 km/h 8.0 mph /  12.9 km/h 80 % 0.00 in /  0 mm 0 W/m2
22:23 50.7 °F /  10.4 °C 44.8 °F /  7.1 °C 30.45 in /  1031 hPa West 5.0 mph /  8 km/h 8.0 mph /  12.9 km/h 80 % 0.00 in /  0 mm 0 W/m2
22:28 50.7 °F /  10.4 °C 44.4 °F /  6.9 °C 30.45 in /  1031 hPa West 6.0 mph /  9.7 km/h 11.0 mph /  17.7 km/h 79 % 0.00 in /  0 mm 0 W/m2
22:33 50.7 °F /  10.4 °C 44.4 °F /  6.9 °C 30.45 in /  1031 hPa West 6.0 mph /  9.7 km/h 11.0 mph /  17.7 km/h 79 % 0.00 in /  0 mm 0 W/m2
22:38 50.7 °F /  10.4 °C 44.4 °F /  6.9 °C 30.45 in /  1031 hPa West 5.0 mph /  8 km/h 9.0 mph /  14.5 km/h 79 % 0.00 in /  0 mm 0 W/m2
22:43 50.5 °F /  10.3 °C 44.3 °F /  6.8 °C 30.45 in /  1031 hPa West 5.0 mph /  8 km/h 8.0 mph /  12.9 km/h 79 % 0.00 in /  0 mm 0 W/m2
22:48 50.5 °F /  10.3 °C 44.3 °F /  6.8 °C 30.45 in /  1031 hPa West 5.0 mph /  8 km/h 11.0 mph /  17.7 km/h 79 % 0.00 in /  0 mm 0 W/m2
22:49 50.5 °F /  10.3 °C 44.3 °F /  6.8 °C 30.45 in /  1031 hPa West 5.0 mph /  8 km/h 11.0 mph /  17.7 km/h 79 % 0.00 in /  0 mm 0 W/m2
22:54 50.5 °F /  10.3 °C 43.9 °F /  6.6 °C 30.45 in /  1031 hPa West 5.0 mph /  8 km/h 11.0 mph /  17.7 km/h 78 % 0.00 in /  0 mm 0 W/m2
22:59 50.5 °F /  10.3 °C 43.6 °F /  6.4 °C 30.45 in /  1031 hPa West 5.0 mph /  8 km/h 10.0 mph /  16.1 km/h 77 % 0.00 in /  0 mm 0 W/m2
23:04 50.5 °F /  10.3 °C 43.6 °F /  6.4 °C 30.45 in /  1031 hPa West 4.0 mph /  6.4 km/h 8.0 mph /  12.9 km/h 77 % 0.00 in /  0 mm 0 W/m2
23:09 50.4 °F /  10.2 °C 43.4 °F /  6.3 °C 30.45 in /  1031 hPa West 4.0 mph /  6.4 km/h 7.0 mph /  11.3 km/h 77 % 0.00 in /  0 mm 0 W/m2
23:14 50.4 °F /  10.2 °C 43.4 °F /  6.3 °C 30.45 in /  1031 hPa West 3.0 mph /  4.8 km/h 7.0 mph /  11.3 km/h 77 % 0.00 in /  0 mm 0 W/m2
23:19 50.4 °F /  10.2 °C 43.1 °F /  6.2 °C 30.45 in /  1031 hPa West 4.0 mph /  6.4 km/h 10.0 mph /  16.1 km/h 76 % 0.00 in /  0 mm 0 W/m2
23:24 50.4 °F /  10.2 °C 43.1 °F /  6.2 °C 30.45 in /  1031 hPa West 6.0 mph /  9.7 km/h 10.0 mph /  16.1 km/h 76 % 0.00 in /  0 mm 0 W/m2
23:29 50.4 °F /  10.2 °C 43.1 °F /  6.2 °C 30.45 in /  1031 hPa West 6.0 mph /  9.7 km/h 10.0 mph /  16.1 km/h 76 % 0.00 in /  0 mm 0 W/m2
23:34 50.2 °F /  10.1 °C 42.9 °F /  6.1 °C 30.45 in /  1031 hPa WNW 8.0 mph /  12.9 km/h 12.0 mph /  19.3 km/h 76 % 0.00 in /  0 mm 0 W/m2
23:39 50.2 °F /  10.1 °C 42.9 °F /  6.1 °C 30.45 in /  1031 hPa WNW 9.0 mph /  14.5 km/h 14.0 mph /  22.5 km/h 76 % 0.00 in /  0 mm 0 W/m2
23:44 50.2 °F /  10.1 °C 42.9 °F /  6.1 °C 30.45 in /  1031 hPa WNW 9.0 mph /  14.5 km/h 14.0 mph /  22.5 km/h 76 % 0.00 in /  0 mm 0 W/m2
23:49 50.2 °F /  10.1 °C 42.9 °F /  6.1 °C 30.45 in /  1031 hPa West 10.0 mph /  16.1 km/h 18.0 mph /  29 km/h 76 % 0.00 in /  0 mm 0 W/m2
23:54 50.2 °F /  10.1 °C 42.9 °F /  6.1 °C 30.45 in /  1031 hPa West 10.0 mph /  16.1 km/h 18.0 mph /  29 km/h 76 % 0.00 in /  0 mm 0 W/m2
23:59 50.2 °F /  10.1 °C 42.9 °F /  6.1 °C 30.46 in /  1031.4 hPa West 9.0 mph /  14.5 km/h 15.0 mph /  24.1 km/h 76 % 0.00 in /  0 mm 0 W/m2
Delerius-Weather
Compliments of Weather Underground - 1.75 mb

Data updates at regular intervals.